sensor_id;sensor_type;location;lat;lon;timestamp;temperature;humidity
8093;DHT22;4089;52.420;13.334;2024-01-30T00:00:20;2.70;99.90
8093;DHT22;4089;52.420;13.334;2024-01-30T00:02:47;2.70;99.90
8093;DHT22;4089;52.420;13.334;2024-01-30T00:05:14;2.70;99.90
8093;DHT22;4089;52.420;13.334;2024-01-30T00:07:41;2.70;99.90
8093;DHT22;4089;52.420;13.334;2024-01-30T00:10:08;2.70;99.90
8093;DHT22;4089;52.420;13.334;2024-01-30T00:12:35;2.60;99.90
8093;DHT22;4089;52.420;13.334;2024-01-30T00:15:02;2.60;99.90
8093;DHT22;4089;52.420;13.334;2024-01-30T00:17:31;2.60;99.90
8093;DHT22;4089;52.420;13.334;2024-01-30T00:19:58;2.50;99.90
8093;DHT22;4089;52.420;13.334;2024-01-30T00:22:25;2.50;99.90
8093;DHT22;4089;52.420;13.334;2024-01-30T00:24:51;2.50;99.90
8093;DHT22;4089;52.420;13.334;2024-01-30T00:27:18;2.50;99.90
8093;DHT22;4089;52.420;13.334;2024-01-30T00:29:45;2.50;99.90
8093;DHT22;4089;52.420;13.334;2024-01-30T00:32:12;2.50;99.90
8093;DHT22;4089;52.420;13.334;2024-01-30T00:34:39;2.40;99.90
8093;DHT22;4089;52.420;13.334;2024-01-30T00:37:05;2.40;99.90
8093;DHT22;4089;52.420;13.334;2024-01-30T00:39:32;2.40;99.90
8093;DHT22;4089;52.420;13.334;2024-01-30T00:41:59;2.40;99.90
8093;DHT22;4089;52.420;13.334;2024-01-30T00:44:26;2.40;99.90
8093;DHT22;4089;52.420;13.334;2024-01-30T00:46:53;2.40;99.90
8093;DHT22;4089;52.420;13.334;2024-01-30T00:49:20;2.40;99.90
8093;DHT22;4089;52.420;13.334;2024-01-30T00:51:47;2.40;99.90
8093;DHT22;4089;52.420;13.334;2024-01-30T00:54:14;2.30;99.90
8093;DHT22;4089;52.420;13.334;2024-01-30T00:56:40;2.40;99.90
8093;DHT22;4089;52.420;13.334;2024-01-30T00:59:07;2.40;99.90
8093;DHT22;4089;52.420;13.334;2024-01-30T01:01:34;2.40;99.90
8093;DHT22;4089;52.420;13.334;2024-01-30T01:04:01;2.30;99.90
8093;DHT22;4089;52.420;13.334;2024-01-30T01:06:28;2.30;99.90
8093;DHT22;4089;52.420;13.334;2024-01-30T01:08:55;2.30;99.90
8093;DHT22;4089;52.420;13.334;2024-01-30T01:11:22;2.30;99.90
8093;DHT22;4089;52.420;13.334;2024-01-30T01:13:49;2.30;99.90
8093;DHT22;4089;52.420;13.334;2024-01-30T01:16:16;2.20;99.90
8093;DHT22;4089;52.420;13.334;2024-01-30T01:18:42;2.30;99.90
8093;DHT22;4089;52.420;13.334;2024-01-30T01:21:09;2.20;99.90
8093;DHT22;4089;52.420;13.334;2024-01-30T01:23:36;2.20;99.90
8093;DHT22;4089;52.420;13.334;2024-01-30T01:26:03;2.20;99.90
8093;DHT22;4089;52.420;13.334;2024-01-30T01:28:30;2.20;99.90
8093;DHT22;4089;52.420;13.334;2024-01-30T01:30:57;2.20;99.90
8093;DHT22;4089;52.420;13.334;2024-01-30T01:33:27;2.10;99.90
8093;DHT22;4089;52.420;13.334;2024-01-30T01:35:54;2.10;99.90
8093;DHT22;4089;52.420;13.334;2024-01-30T01:38:21;2.10;99.90
8093;DHT22;4089;52.420;13.334;2024-01-30T01:40:48;2.10;99.90
8093;DHT22;4089;52.420;13.334;2024-01-30T01:43:15;2.10;99.90
8093;DHT22;4089;52.420;13.334;2024-01-30T01:45:42;2.10;99.90
8093;DHT22;4089;52.420;13.334;2024-01-30T01:48:09;2.10;99.90
8093;DHT22;4089;52.420;13.334;2024-01-30T01:50:36;2.10;99.90
8093;DHT22;4089;52.420;13.334;2024-01-30T01:53:06;2.10;99.90
8093;DHT22;4089;52.420;13.334;2024-01-30T01:55:35;2.10;99.90
8093;DHT22;4089;52.420;13.334;2024-01-30T01:58:02;2.10;99.90
8093;DHT22;4089;52.420;13.334;2024-01-30T02:00:29;2.10;99.90
8093;DHT22;4089;52.420;13.334;2024-01-30T02:02:58;2.10;99.90
8093;DHT22;4089;52.420;13.334;2024-01-30T02:05:26;2.10;99.90
8093;DHT22;4089;52.420;13.334;2024-01-30T02:07:53;2.10;99.90
8093;DHT22;4089;52.420;13.334;2024-01-30T02:10:21;2.10;99.90
8093;DHT22;4089;52.420;13.334;2024-01-30T02:12:48;2.10;99.90
8093;DHT22;4089;52.420;13.334;2024-01-30T02:15:15;2.10;99.90
8093;DHT22;4089;52.420;13.334;2024-01-30T02:17:42;2.10;99.90
8093;DHT22;4089;52.420;13.334;2024-01-30T02:20:09;2.10;99.90
8093;DHT22;4089;52.420;13.334;2024-01-30T02:22:37;2.10;99.90
8093;DHT22;4089;52.420;13.334;2024-01-30T02:25:05;2.10;99.90
8093;DHT22;4089;52.420;13.334;2024-01-30T02:27:31;2.10;99.90
8093;DHT22;4089;52.420;13.334;2024-01-30T02:29:59;2.20;99.90
8093;DHT22;4089;52.420;13.334;2024-01-30T02:32:25;2.20;99.90
8093;DHT22;4089;52.420;13.334;2024-01-30T02:34:52;2.20;99.90
8093;DHT22;4089;52.420;13.334;2024-01-30T02:37:19;2.20;99.90
8093;DHT22;4089;52.420;13.334;2024-01-30T02:39:46;2.10;99.90
8093;DHT22;4089;52.420;13.334;2024-01-30T02:42:13;2.20;99.90
8093;DHT22;4089;52.420;13.334;2024-01-30T02:44:39;2.20;99.90
8093;DHT22;4089;52.420;13.334;2024-01-30T02:47:06;2.10;99.90
8093;DHT22;4089;52.420;13.334;2024-01-30T02:49:33;2.00;99.90
8093;DHT22;4089;52.420;13.334;2024-01-30T02:52:00;2.10;99.90
8093;DHT22;4089;52.420;13.334;2024-01-30T02:54:27;2.00;99.90
8093;DHT22;4089;52.420;13.334;2024-01-30T02:56:54;1.90;99.90
8093;DHT22;4089;52.420;13.334;2024-01-30T02:59:20;2.00;99.90
8093;DHT22;4089;52.420;13.334;2024-01-30T03:01:47;2.00;99.90
8093;DHT22;4089;52.420;13.334;2024-01-30T03:04:14;1.90;99.90
8093;DHT22;4089;52.420;13.334;2024-01-30T03:06:45;1.90;99.90
8093;DHT22;4089;52.420;13.334;2024-01-30T03:09:18;1.90;99.90
8093;DHT22;4089;52.420;13.334;2024-01-30T03:11:45;1.90;99.90
8093;DHT22;4089;52.420;13.334;2024-01-30T03:14:12;1.90;99.90
8093;DHT22;4089;52.420;13.334;2024-01-30T03:16:39;2.00;99.90
8093;DHT22;4089;52.420;13.334;2024-01-30T03:19:06;1.90;99.90
8093;DHT22;4089;52.420;13.334;2024-01-30T03:21:35;1.90;99.90
8093;DHT22;4089;52.420;13.334;2024-01-30T03:24:02;1.90;99.90
8093;DHT22;4089;52.420;13.334;2024-01-30T03:26:29;1.80;99.90
8093;DHT22;4089;52.420;13.334;2024-01-30T03:28:55;1.80;99.90
8093;DHT22;4089;52.420;13.334;2024-01-30T03:31:22;1.70;99.90
8093;DHT22;4089;52.420;13.334;2024-01-30T03:33:49;1.70;99.90
8093;DHT22;4089;52.420;13.334;2024-01-30T03:36:16;1.70;99.90
8093;DHT22;4089;52.420;13.334;2024-01-30T03:38:43;1.70;99.90
8093;DHT22;4089;52.420;13.334;2024-01-30T03:41:10;1.70;99.90
8093;DHT22;4089;52.420;13.334;2024-01-30T03:43:37;1.70;99.90
8093;DHT22;4089;52.420;13.334;2024-01-30T03:46:04;1.70;99.90
8093;DHT22;4089;52.420;13.334;2024-01-30T03:48:31;1.80;99.90
8093;DHT22;4089;52.420;13.334;2024-01-30T03:50:57;1.80;99.90
8093;DHT22;4089;52.420;13.334;2024-01-30T03:53:24;1.70;99.90
8093;DHT22;4089;52.420;13.334;2024-01-30T03:55:51;1.80;99.90
8093;DHT22;4089;52.420;13.334;2024-01-30T03:58:18;1.80;99.90
8093;DHT22;4089;52.420;13.334;2024-01-30T04:00:45;1.70;99.90
8093;DHT22;4089;52.420;13.334;2024-01-30T04:03:12;1.70;99.90
8093;DHT22;4089;52.420;13.334;2024-01-30T04:05:39;1.60;99.90
8093;DHT22;4089;52.420;13.334;2024-01-30T04:08:06;1.60;99.90
8093;DHT22;4089;52.420;13.334;2024-01-30T04:10:33;1.60;99.90
8093;DHT22;4089;52.420;13.334;2024-01-30T04:13:00;1.60;99.90
8093;DHT22;4089;52.420;13.334;2024-01-30T04:15:27;1.60;99.90
8093;DHT22;4089;52.420;13.334;2024-01-30T04:17:59;1.60;99.90
8093;DHT22;4089;52.420;13.334;2024-01-30T04:20:26;1.60;99.90
8093;DHT22;4089;52.420;13.334;2024-01-30T04:22:53;1.60;99.90
8093;DHT22;4089;52.420;13.334;2024-01-30T04:25:20;1.50;99.90
8093;DHT22;4089;52.420;13.334;2024-01-30T04:27:47;1.50;99.90
8093;DHT22;4089;52.420;13.334;2024-01-30T04:30:14;1.50;99.90
8093;DHT22;4089;52.420;13.334;2024-01-30T04:32:41;1.50;99.90
8093;DHT22;4089;52.420;13.334;2024-01-30T04:35:08;1.60;99.90
8093;DHT22;4089;52.420;13.334;2024-01-30T04:37:38;1.60;99.90
8093;DHT22;4089;52.420;13.334;2024-01-30T04:40:05;1.60;99.90
8093;DHT22;4089;52.420;13.334;2024-01-30T04:42:32;1.50;99.90
8093;DHT22;4089;52.420;13.334;2024-01-30T04:44:59;1.50;99.90
8093;DHT22;4089;52.420;13.334;2024-01-30T04:47:26;1.50;99.90
8093;DHT22;4089;52.420;13.334;2024-01-30T04:49:53;1.60;99.90
8093;DHT22;4089;52.420;13.334;2024-01-30T04:52:20;1.50;99.90
8093;DHT22;4089;52.420;13.334;2024-01-30T04:54:47;1.50;99.90
8093;DHT22;4089;52.420;13.334;2024-01-30T04:57:14;1.50;99.90
8093;DHT22;4089;52.420;13.334;2024-01-30T04:59:41;1.60;99.90
8093;DHT22;4089;52.420;13.334;2024-01-30T05:02:08;1.60;99.90
8093;DHT22;4089;52.420;13.334;2024-01-30T05:04:35;1.60;99.90
8093;DHT22;4089;52.420;13.334;2024-01-30T05:07:02;1.60;99.90
8093;DHT22;4089;52.420;13.334;2024-01-30T05:09:28;1.60;99.90
8093;DHT22;4089;52.420;13.334;2024-01-30T05:11:55;1.60;99.90
8093;DHT22;4089;52.420;13.334;2024-01-30T05:14:22;1.70;99.90
8093;DHT22;4089;52.420;13.334;2024-01-30T05:16:49;1.70;99.90
8093;DHT22;4089;52.420;13.334;2024-01-30T05:19:16;1.60;99.90
8093;DHT22;4089;52.420;13.334;2024-01-30T05:21:44;1.60;99.90
8093;DHT22;4089;52.420;13.334;2024-01-30T05:24:11;1.70;99.90
8093;DHT22;4089;52.420;13.334;2024-01-30T05:26:38;1.70;99.90
8093;DHT22;4089;52.420;13.334;2024-01-30T05:29:06;1.70;99.90
8093;DHT22;4089;52.420;13.334;2024-01-30T05:31:33;1.70;99.90
8093;DHT22;4089;52.420;13.334;2024-01-30T05:34:01;1.80;99.90
8093;DHT22;4089;52.420;13.334;2024-01-30T05:36:28;1.70;99.90
8093;DHT22;4089;52.420;13.334;2024-01-30T05:38:56;1.80;99.90
8093;DHT22;4089;52.420;13.334;2024-01-30T05:41:23;1.70;99.90
8093;DHT22;4089;52.420;13.334;2024-01-30T05:43:49;1.80;99.90
8093;DHT22;4089;52.420;13.334;2024-01-30T05:46:16;1.80;99.90
8093;DHT22;4089;52.420;13.334;2024-01-30T05:48:45;1.80;99.90
8093;DHT22;4089;52.420;13.334;2024-01-30T05:51:12;1.80;99.90
8093;DHT22;4089;52.420;13.334;2024-01-30T05:53:39;1.70;99.90
8093;DHT22;4089;52.420;13.334;2024-01-30T05:56:06;1.80;99.90
8093;DHT22;4089;52.420;13.334;2024-01-30T05:58:33;1.70;99.90
8093;DHT22;4089;52.420;13.334;2024-01-30T06:00:59;1.80;99.90
8093;DHT22;4089;52.420;13.334;2024-01-30T06:03:26;1.80;99.90
8093;DHT22;4089;52.420;13.334;2024-01-30T06:05:53;1.80;99.90
8093;DHT22;4089;52.420;13.334;2024-01-30T06:08:20;1.70;99.90
8093;DHT22;4089;52.420;13.334;2024-01-30T06:10:46;1.70;99.90
8093;DHT22;4089;52.420;13.334;2024-01-30T06:13:14;1.70;99.90
8093;DHT22;4089;52.420;13.334;2024-01-30T06:15:41;1.70;99.90
8093;DHT22;4089;52.420;13.334;2024-01-30T06:18:08;1.70;99.90
8093;DHT22;4089;52.420;13.334;2024-01-30T06:20:36;1.80;99.90
8093;DHT22;4089;52.420;13.334;2024-01-30T06:23:03;1.70;99.90
8093;DHT22;4089;52.420;13.334;2024-01-30T06:25:29;1.80;99.90
8093;DHT22;4089;52.420;13.334;2024-01-30T06:27:56;1.80;99.90
8093;DHT22;4089;52.420;13.334;2024-01-30T06:30:24;1.80;99.90
8093;DHT22;4089;52.420;13.334;2024-01-30T06:32:53;1.80;99.90
8093;DHT22;4089;52.420;13.334;2024-01-30T06:35:19;1.80;99.90
8093;DHT22;4089;52.420;13.334;2024-01-30T06:37:48;1.80;99.90
8093;DHT22;4089;52.420;13.334;2024-01-30T06:40:15;1.80;99.90
8093;DHT22;4089;52.420;13.334;2024-01-30T06:42:41;1.80;99.90
8093;DHT22;4089;52.420;13.334;2024-01-30T06:45:09;1.90;99.90
8093;DHT22;4089;52.420;13.334;2024-01-30T06:47:36;1.90;99.90
8093;DHT22;4089;52.420;13.334;2024-01-30T06:50:03;2.00;99.90
8093;DHT22;4089;52.420;13.334;2024-01-30T06:52:30;1.90;99.90
8093;DHT22;4089;52.420;13.334;2024-01-30T06:54:57;2.00;99.90
8093;DHT22;4089;52.420;13.334;2024-01-30T06:57:25;2.00;99.90
8093;DHT22;4089;52.420;13.334;2024-01-30T06:59:57;2.00;99.90
8093;DHT22;4089;52.420;13.334;2024-01-30T07:02:24;2.10;99.90
8093;DHT22;4089;52.420;13.334;2024-01-30T07:04:51;2.10;99.90
8093;DHT22;4089;52.420;13.334;2024-01-30T07:07:18;2.10;99.90
8093;DHT22;4089;52.420;13.334;2024-01-30T07:09:46;2.20;99.90
8093;DHT22;4089;52.420;13.334;2024-01-30T07:12:14;2.20;99.90
8093;DHT22;4089;52.420;13.334;2024-01-30T07:14:41;2.30;99.90
8093;DHT22;4089;52.420;13.334;2024-01-30T07:17:07;2.20;99.90
8093;DHT22;4089;52.420;13.334;2024-01-30T07:19:34;2.30;99.90
8093;DHT22;4089;52.420;13.334;2024-01-30T07:22:01;2.30;99.90
8093;DHT22;4089;52.420;13.334;2024-01-30T07:24:28;2.40;99.90
8093;DHT22;4089;52.420;13.334;2024-01-30T07:26:55;2.40;99.90
8093;DHT22;4089;52.420;13.334;2024-01-30T07:29:22;2.50;99.90
8093;DHT22;4089;52.420;13.334;2024-01-30T07:31:48;2.50;99.90
8093;DHT22;4089;52.420;13.334;2024-01-30T07:34:15;2.50;99.90
8093;DHT22;4089;52.420;13.334;2024-01-30T07:36:42;2.60;99.90
8093;DHT22;4089;52.420;13.334;2024-01-30T07:39:09;2.60;99.90
8093;DHT22;4089;52.420;13.334;2024-01-30T07:41:36;2.60;99.90
8093;DHT22;4089;52.420;13.334;2024-01-30T07:44:03;2.60;99.90
8093;DHT22;4089;52.420;13.334;2024-01-30T07:46:30;2.70;99.90
8093;DHT22;4089;52.420;13.334;2024-01-30T07:48:58;2.70;99.90
8093;DHT22;4089;52.420;13.334;2024-01-30T07:51:25;2.80;99.90
8093;DHT22;4089;52.420;13.334;2024-01-30T07:53:52;2.80;99.90
8093;DHT22;4089;52.420;13.334;2024-01-30T07:56:18;2.80;99.90
8093;DHT22;4089;52.420;13.334;2024-01-30T07:58:45;2.90;99.90
8093;DHT22;4089;52.420;13.334;2024-01-30T08:01:12;2.90;99.90
8093;DHT22;4089;52.420;13.334;2024-01-30T08:03:39;2.90;99.90
8093;DHT22;4089;52.420;13.334;2024-01-30T08:06:08;2.90;99.90
8093;DHT22;4089;52.420;13.334;2024-01-30T08:08:35;3.00;99.90
8093;DHT22;4089;52.420;13.334;2024-01-30T08:11:01;3.00;99.90
8093;DHT22;4089;52.420;13.334;2024-01-30T08:13:28;3.00;99.90
8093;DHT22;4089;52.420;13.334;2024-01-30T08:15:55;3.10;99.90
8093;DHT22;4089;52.420;13.334;2024-01-30T08:18:22;3.10;99.90
8093;DHT22;4089;52.420;13.334;2024-01-30T08:20:49;3.20;99.90
8093;DHT22;4089;52.420;13.334;2024-01-30T08:23:16;3.30;99.90
8093;DHT22;4089;52.420;13.334;2024-01-30T08:25:43;3.40;99.90
8093;DHT22;4089;52.420;13.334;2024-01-30T08:28:09;3.50;99.90
8093;DHT22;4089;52.420;13.334;2024-01-30T08:30:37;3.60;99.90
8093;DHT22;4089;52.420;13.334;2024-01-30T08:33:05;3.70;99.90
8093;DHT22;4089;52.420;13.334;2024-01-30T08:35:32;3.90;99.90
8093;DHT22;4089;52.420;13.334;2024-01-30T08:38:00;4.00;99.90
8093;DHT22;4089;52.420;13.334;2024-01-30T08:40:27;4.10;99.90
8093;DHT22;4089;52.420;13.334;2024-01-30T08:42:55;4.20;99.90
8093;DHT22;4089;52.420;13.334;2024-01-30T08:45:22;4.30;99.90
8093;DHT22;4089;52.420;13.334;2024-01-30T08:47:49;4.30;99.90
8093;DHT22;4089;52.420;13.334;2024-01-30T08:50:16;4.30;99.90
8093;DHT22;4089;52.420;13.334;2024-01-30T08:52:43;4.40;99.90
8093;DHT22;4089;52.420;13.334;2024-01-30T08:55:13;4.40;99.90
8093;DHT22;4089;52.420;13.334;2024-01-30T08:57:40;4.50;99.90
8093;DHT22;4089;52.420;13.334;2024-01-30T09:00:07;4.50;99.90
8093;DHT22;4089;52.420;13.334;2024-01-30T09:02:35;4.60;99.90
8093;DHT22;4089;52.420;13.334;2024-01-30T09:05:03;4.60;99.90
8093;DHT22;4089;52.420;13.334;2024-01-30T09:07:30;4.70;99.90
8093;DHT22;4089;52.420;13.334;2024-01-30T09:09:57;4.80;99.90
8093;DHT22;4089;52.420;13.334;2024-01-30T09:12:24;4.90;99.90
8093;DHT22;4089;52.420;13.334;2024-01-30T09:14:51;5.00;99.90
8093;DHT22;4089;52.420;13.334;2024-01-30T09:17:18;5.00;99.90
8093;DHT22;4089;52.420;13.334;2024-01-30T09:19:46;5.10;99.90
8093;DHT22;4089;52.420;13.334;2024-01-30T09:22:13;5.10;99.90
8093;DHT22;4089;52.420;13.334;2024-01-30T09:24:40;5.20;99.90
8093;DHT22;4089;52.420;13.334;2024-01-30T09:27:07;5.20;99.90
8093;DHT22;4089;52.420;13.334;2024-01-30T09:29:34;5.30;99.90
8093;DHT22;4089;52.420;13.334;2024-01-30T09:32:04;5.30;99.90
8093;DHT22;4089;52.420;13.334;2024-01-30T09:34:32;5.40;99.90
8093;DHT22;4089;52.420;13.334;2024-01-30T09:36:59;5.40;99.90
8093;DHT22;4089;52.420;13.334;2024-01-30T09:39:27;5.50;99.90
8093;DHT22;4089;52.420;13.334;2024-01-30T09:42:28;5.60;99.90
8093;DHT22;4089;52.420;13.334;2024-01-30T09:44:56;5.60;99.90
8093;DHT22;4089;52.420;13.334;2024-01-30T09:47:23;5.70;99.90
8093;DHT22;4089;52.420;13.334;2024-01-30T09:49:51;5.70;99.90
8093;DHT22;4089;52.420;13.334;2024-01-30T09:52:18;5.80;99.90
8093;DHT22;4089;52.420;13.334;2024-01-30T09:54:45;5.80;99.90
8093;DHT22;4089;52.420;13.334;2024-01-30T09:57:14;5.90;99.90
8093;DHT22;4089;52.420;13.334;2024-01-30T09:59:42;5.90;99.90
8093;DHT22;4089;52.420;13.334;2024-01-30T10:02:10;6.00;99.90
8093;DHT22;4089;52.420;13.334;2024-01-30T10:04:37;6.10;99.90
8093;DHT22;4089;52.420;13.334;2024-01-30T10:07:06;6.10;99.90
8093;DHT22;4089;52.420;13.334;2024-01-30T10:09:33;6.20;99.90
8093;DHT22;4089;52.420;13.334;2024-01-30T10:12:02;6.30;99.90
8093;DHT22;4089;52.420;13.334;2024-01-30T10:14:30;6.40;99.90
8093;DHT22;4089;52.420;13.334;2024-01-30T10:16:57;6.40;99.90
8093;DHT22;4089;52.420;13.334;2024-01-30T10:19:24;6.50;99.90
8093;DHT22;4089;52.420;13.334;2024-01-30T10:21:51;6.50;99.90
8093;DHT22;4089;52.420;13.334;2024-01-30T10:24:24;6.60;99.90
8093;DHT22;4089;52.420;13.334;2024-01-30T10:26:51;6.60;99.90
8093;DHT22;4089;52.420;13.334;2024-01-30T10:29:18;6.70;99.90
8093;DHT22;4089;52.420;13.334;2024-01-30T10:31:44;6.70;99.90
8093;DHT22;4089;52.420;13.334;2024-01-30T10:34:11;6.80;99.90
8093;DHT22;4089;52.420;13.334;2024-01-30T10:36:50;6.90;99.90
8093;DHT22;4089;52.420;13.334;2024-01-30T10:39:17;6.90;99.90
8093;DHT22;4089;52.420;13.334;2024-01-30T10:41:44;6.90;99.90
8093;DHT22;4089;52.420;13.334;2024-01-30T10:44:19;7.00;99.10
8093;DHT22;4089;52.420;13.334;2024-01-30T10:46:53;7.00;98.70
8093;DHT22;4089;52.420;13.334;2024-01-30T10:49:23;7.10;98.20
8093;DHT22;4089;52.420;13.334;2024-01-30T10:51:52;7.20;98.20
8093;DHT22;4089;52.420;13.334;2024-01-30T10:54:20;7.20;97.90
8093;DHT22;4089;52.420;13.334;2024-01-30T10:56:48;7.20;98.00
8093;DHT22;4089;52.420;13.334;2024-01-30T10:59:16;7.30;97.40
8093;DHT22;4089;52.420;13.334;2024-01-30T11:01:43;7.30;96.90
8093;DHT22;4089;52.420;13.334;2024-01-30T11:04:11;7.30;96.90
8093;DHT22;4089;52.420;13.334;2024-01-30T11:06:41;7.30;97.10
8093;DHT22;4089;52.420;13.334;2024-01-30T11:09:11;7.30;96.50
8093;DHT22;4089;52.420;13.334;2024-01-30T11:11:58;7.40;96.50
8093;DHT22;4089;52.420;13.334;2024-01-30T11:14:30;7.40;96.30
8093;DHT22;4089;52.420;13.334;2024-01-30T11:16:57;7.40;96.30
8093;DHT22;4089;52.420;13.334;2024-01-30T11:19:30;7.40;96.10
8093;DHT22;4089;52.420;13.334;2024-01-30T11:21:58;7.50;96.30
8093;DHT22;4089;52.420;13.334;2024-01-30T11:24:26;7.50;96.20
8093;DHT22;4089;52.420;13.334;2024-01-30T11:26:56;7.50;96.00
8093;DHT22;4089;52.420;13.334;2024-01-30T11:29:28;7.60;96.10
8093;DHT22;4089;52.420;13.334;2024-01-30T11:31:56;7.60;96.20
8093;DHT22;4089;52.420;13.334;2024-01-30T11:34:23;7.70;96.40
8093;DHT22;4089;52.420;13.334;2024-01-30T11:37:03;7.70;96.30
8093;DHT22;4089;52.420;13.334;2024-01-30T11:39:32;7.70;95.40
8093;DHT22;4089;52.420;13.334;2024-01-30T11:41:59;7.80;95.50
8093;DHT22;4089;52.420;13.334;2024-01-30T11:44:26;7.90;95.30
8093;DHT22;4089;52.420;13.334;2024-01-30T11:46:53;8.00;95.50
8093;DHT22;4089;52.420;13.334;2024-01-30T11:49:20;8.00;94.60
8093;DHT22;4089;52.420;13.334;2024-01-30T11:51:48;8.00;94.70
8093;DHT22;4089;52.420;13.334;2024-01-30T11:54:18;8.10;95.00
8093;DHT22;4089;52.420;13.334;2024-01-30T11:56:45;8.20;94.80
8093;DHT22;4089;52.420;13.334;2024-01-30T11:59:12;8.30;94.90
8093;DHT22;4089;52.420;13.334;2024-01-30T12:01:41;8.30;95.30
8093;DHT22;4089;52.420;13.334;2024-01-30T12:04:09;8.40;95.10
8093;DHT22;4089;52.420;13.334;2024-01-30T12:06:38;8.40;94.40
8093;DHT22;4089;52.420;13.334;2024-01-30T12:09:05;8.40;94.20
8093;DHT22;4089;52.420;13.334;2024-01-30T12:11:45;8.40;94.40
8093;DHT22;4089;52.420;13.334;2024-01-30T12:14:12;8.50;94.40
8093;DHT22;4089;52.420;13.334;2024-01-30T12:16:39;8.40;94.50
8093;DHT22;4089;52.420;13.334;2024-01-30T12:19:08;8.50;94.70
8093;DHT22;4089;52.420;13.334;2024-01-30T12:21:35;8.50;95.10
8093;DHT22;4089;52.420;13.334;2024-01-30T12:24:02;8.60;95.00
8093;DHT22;4089;52.420;13.334;2024-01-30T12:26:29;8.50;94.50
8093;DHT22;4089;52.420;13.334;2024-01-30T12:28:56;8.50;94.70
8093;DHT22;4089;52.420;13.334;2024-01-30T12:31:28;8.60;95.10
8093;DHT22;4089;52.420;13.334;2024-01-30T12:33:55;8.60;95.10
8093;DHT22;4089;52.420;13.334;2024-01-30T12:36:25;8.60;95.10
8093;DHT22;4089;52.420;13.334;2024-01-30T12:38:52;8.60;94.90
8093;DHT22;4089;52.420;13.334;2024-01-30T12:41:20;8.60;94.80
8093;DHT22;4089;52.420;13.334;2024-01-30T12:43:47;8.60;95.00
8093;DHT22;4089;52.420;13.334;2024-01-30T12:46:17;8.70;95.10
8093;DHT22;4089;52.420;13.334;2024-01-30T12:48:44;8.70;95.40
8093;DHT22;4089;52.420;13.334;2024-01-30T12:51:11;8.70;96.20
8093;DHT22;4089;52.420;13.334;2024-01-30T12:53:38;8.80;96.20
8093;DHT22;4089;52.420;13.334;2024-01-30T12:56:05;8.80;96.30
8093;DHT22;4089;52.420;13.334;2024-01-30T12:58:31;8.80;96.00
8093;DHT22;4089;52.420;13.334;2024-01-30T13:00:58;8.80;96.10
8093;DHT22;4089;52.420;13.334;2024-01-30T13:03:26;8.80;95.90
8093;DHT22;4089;52.420;13.334;2024-01-30T13:05:53;8.90;96.00
8093;DHT22;4089;52.420;13.334;2024-01-30T13:08:20;8.90;95.70
8093;DHT22;4089;52.420;13.334;2024-01-30T13:10:46;9.00;96.30
8093;DHT22;4089;52.420;13.334;2024-01-30T13:13:16;9.00;95.70
8093;DHT22;4089;52.420;13.334;2024-01-30T13:15:47;8.90;95.60
8093;DHT22;4089;52.420;13.334;2024-01-30T13:18:14;8.90;95.80
8093;DHT22;4089;52.420;13.334;2024-01-30T13:20:42;8.90;95.80
8093;DHT22;4089;52.420;13.334;2024-01-30T13:23:09;8.90;95.70
8093;DHT22;4089;52.420;13.334;2024-01-30T13:25:36;8.90;96.00
8093;DHT22;4089;52.420;13.334;2024-01-30T13:28:03;9.00;96.00
8093;DHT22;4089;52.420;13.334;2024-01-30T13:30:30;9.00;96.10
8093;DHT22;4089;52.420;13.334;2024-01-30T13:32:58;9.00;96.50
8093;DHT22;4089;52.420;13.334;2024-01-30T13:35:25;9.00;96.50
8093;DHT22;4089;52.420;13.334;2024-01-30T13:37:52;9.00;96.50
8093;DHT22;4089;52.420;13.334;2024-01-30T13:40:19;9.00;96.90
8093;DHT22;4089;52.420;13.334;2024-01-30T13:42:46;9.10;96.60
8093;DHT22;4089;52.420;13.334;2024-01-30T13:45:13;9.10;97.10
8093;DHT22;4089;52.420;13.334;2024-01-30T13:47:40;9.10;96.70
8093;DHT22;4089;52.420;13.334;2024-01-30T13:50:07;9.20;96.70
8093;DHT22;4089;52.420;13.334;2024-01-30T13:52:35;9.20;97.00
8093;DHT22;4089;52.420;13.334;2024-01-30T13:55:10;9.20;97.00
8093;DHT22;4089;52.420;13.334;2024-01-30T13:57:38;9.20;96.70
8093;DHT22;4089;52.420;13.334;2024-01-30T14:00:05;9.20;96.70
8093;DHT22;4089;52.420;13.334;2024-01-30T14:02:35;9.20;97.10
8093;DHT22;4089;52.420;13.334;2024-01-30T14:05:02;9.20;97.00
8093;DHT22;4089;52.420;13.334;2024-01-30T14:07:31;9.20;97.50
8093;DHT22;4089;52.420;13.334;2024-01-30T14:09:58;9.20;97.70
8093;DHT22;4089;52.420;13.334;2024-01-30T14:12:25;9.20;97.90
8093;DHT22;4089;52.420;13.334;2024-01-30T14:14:52;9.20;98.10
8093;DHT22;4089;52.420;13.334;2024-01-30T14:17:19;9.20;98.20
8093;DHT22;4089;52.420;13.334;2024-01-30T14:19:45;9.20;98.30
8093;DHT22;4089;52.420;13.334;2024-01-30T14:22:12;9.20;98.30
8093;DHT22;4089;52.420;13.334;2024-01-30T14:24:39;9.20;98.50
8093;DHT22;4089;52.420;13.334;2024-01-30T14:27:06;9.20;98.60
8093;DHT22;4089;52.420;13.334;2024-01-30T14:29:35;9.20;98.40
8093;DHT22;4089;52.420;13.334;2024-01-30T14:32:02;9.20;98.70
8093;DHT22;4089;52.420;13.334;2024-01-30T14:34:30;9.20;98.60
8093;DHT22;4089;52.420;13.334;2024-01-30T14:36:58;9.10;99.00
8093;DHT22;4089;52.420;13.334;2024-01-30T14:39:25;9.10;99.40
8093;DHT22;4089;52.420;13.334;2024-01-30T14:41:52;9.10;99.70
8093;DHT22;4089;52.420;13.334;2024-01-30T14:44:19;9.20;99.80
8093;DHT22;4089;52.420;13.334;2024-01-30T14:46:46;9.10;99.30
8093;DHT22;4089;52.420;13.334;2024-01-30T14:49:12;9.00;99.30
8093;DHT22;4089;52.420;13.334;2024-01-30T14:51:40;9.10;99.50
8093;DHT22;4089;52.420;13.334;2024-01-30T14:54:06;9.00;99.90
8093;DHT22;4089;52.420;13.334;2024-01-30T14:56:33;8.90;99.90
8093;DHT22;4089;52.420;13.334;2024-01-30T14:59:01;8.80;99.90
8093;DHT22;4089;52.420;13.334;2024-01-30T15:01:28;8.80;99.90
8093;DHT22;4089;52.420;13.334;2024-01-30T15:03:55;8.70;99.90
8093;DHT22;4089;52.420;13.334;2024-01-30T15:06:22;8.70;99.90
8093;DHT22;4089;52.420;13.334;2024-01-30T15:08:52;8.70;99.90
8093;DHT22;4089;52.420;13.334;2024-01-30T15:11:19;8.70;99.90
8093;DHT22;4089;52.420;13.334;2024-01-30T15:13:46;8.60;99.90
8093;DHT22;4089;52.420;13.334;2024-01-30T15:16:13;8.60;99.90
8093;DHT22;4089;52.420;13.334;2024-01-30T15:18:40;8.60;99.90
8093;DHT22;4089;52.420;13.334;2024-01-30T15:21:07;8.60;99.90
8093;DHT22;4089;52.420;13.334;2024-01-30T15:23:34;8.50;99.90
8093;DHT22;4089;52.420;13.334;2024-01-30T15:26:01;8.50;99.90
8093;DHT22;4089;52.420;13.334;2024-01-30T15:28:36;8.50;99.90
8093;DHT22;4089;52.420;13.334;2024-01-30T15:31:04;8.50;99.90
8093;DHT22;4089;52.420;13.334;2024-01-30T15:33:31;8.40;99.90
8093;DHT22;4089;52.420;13.334;2024-01-30T15:36:02;8.30;99.90
8093;DHT22;4089;52.420;13.334;2024-01-30T15:38:29;8.30;99.90
8093;DHT22;4089;52.420;13.334;2024-01-30T15:40:57;8.30;99.90
8093;DHT22;4089;52.420;13.334;2024-01-30T15:43:24;8.30;99.90
8093;DHT22;4089;52.420;13.334;2024-01-30T15:45:52;8.30;99.90
8093;DHT22;4089;52.420;13.334;2024-01-30T15:48:19;8.30;99.90
8093;DHT22;4089;52.420;13.334;2024-01-30T15:50:46;8.20;99.90
8093;DHT22;4089;52.420;13.334;2024-01-30T15:53:13;8.10;99.90
8093;DHT22;4089;52.420;13.334;2024-01-30T15:55:40;8.00;99.90
8093;DHT22;4089;52.420;13.334;2024-01-30T15:58:07;8.00;99.90
8093;DHT22;4089;52.420;13.334;2024-01-30T16:00:34;8.00;99.90
8093;DHT22;4089;52.420;13.334;2024-01-30T16:03:01;7.90;99.90